Terminal Aerodrome Forecast
Issued by NWS Boston, MA

Home | Current Version | Previous Version | Text Only | Print | Product List | Glossary On
Versions: 1 2 3 4 5 6 7 8 9 10 11 12 13 14 15 16 17 18 19 20 21 22 23 24 25 26 27 28 29 30 31 32 33 34 35 36 37 38 39 40 41 42 43 44
221
FTUS41 KBOX 251447 AAA
TAFPVD
TAF AMD
KPVD 251447Z 2515/2612 14010KT 3SM -RA BR OVC008
     FM251700 13012G20KT 2SM RA BR OVC005 WS020/14040KT
     FM252000 12011KT 1 1/2SM +RA BR OVC005 WS020/16040KT
     FM260000 15009KT 1SM -SHRA BR OVC003 WS020/20040KT
     FM260600 15006KT 3/4SM -SHRA BR OVC003
     FM260900 16005KT 2SM BR OVC003
     FM261100 20005KT 1SM BR OVC008=

USA.gov is the U.S. government's official web portal to all federal, state and local government web resources and services.